createdAt,value
2023-05-12T00:01:52.617Z,100077.59
2023-05-12T00:04:25.525Z,100074.13
2023-05-12T00:06:58.607Z,100064.34
2023-05-12T00:09:31.516Z,100068.59
2023-05-12T00:12:06.284Z,100059.19
2023-05-12T00:14:39.630Z,100066.94
2023-05-12T00:17:14.004Z,100061.25
2023-05-12T00:19:48.443Z,100067.31
2023-05-12T00:22:21.353Z,100066.34
2023-05-12T00:24:54.506Z,100069.66
2023-05-12T00:27:29.624Z,100073.63
2023-05-12T00:30:02.499Z,100066.38
2023-05-12T00:32:35.392Z,100069.50
2023-05-12T00:35:08.522Z,100070.53
2023-05-12T00:37:41.614Z,100079.78
2023-05-12T00:40:14.640Z,100074.50
2023-05-12T00:42:49.745Z,100065.03
2023-05-12T00:45:22.685Z,100069.78
2023-05-12T00:47:55.731Z,100072.31
2023-05-12T00:50:28.737Z,100071.31
2023-05-12T00:53:02.106Z,100066.09
2023-05-12T00:55:35.249Z,100064.72
2023-05-12T00:58:09.749Z,100070.38
2023-05-12T01:00:43.277Z,100066.59
2023-05-12T01:03:16.539Z,100067.47
2023-05-12T01:05:51.213Z,100066.09
2023-05-12T01:08:24.663Z,100068.53
2023-05-12T01:10:57.476Z,100072.81
2023-05-12T01:13:31.887Z,100070.63
2023-05-12T01:16:05.802Z,100063.59
2023-05-12T01:18:39.227Z,100067.09
2023-05-12T01:21:12.512Z,100056.03
2023-05-12T01:23:47.865Z,100067.16
2023-05-12T01:26:22.836Z,100063.91
2023-05-12T01:28:55.937Z,100062.06
2023-05-12T01:31:29.076Z,100063.09
2023-05-12T01:34:01.951Z,100052.66
2023-05-12T01:36:35.126Z,100052.53
2023-05-12T01:39:08.184Z,100057.75
2023-05-12T01:41:42.422Z,100061.34
2023-05-12T01:44:15.253Z,100059.91
2023-05-12T01:46:49.589Z,100056.09
2023-05-12T01:49:22.989Z,100053.88
2023-05-12T01:51:55.899Z,100067.81
2023-05-12T01:54:28.720Z,100063.53
2023-05-12T01:57:03.053Z,100069.38
2023-05-12T01:59:36.249Z,100072.88
2023-05-12T02:02:09.330Z,100073.56
2023-05-12T02:04:43.333Z,100066.34
2023-05-12T02:07:16.559Z,100069.97
2023-05-12T02:09:49.554Z,100067.78
2023-05-12T02:12:23.771Z,100064.75
2023-05-12T02:14:56.632Z,100063.53
2023-05-12T02:17:29.829Z,100068.03
2023-05-12T02:20:02.763Z,100062.25
2023-05-12T02:22:35.548Z,100059.69
2023-05-12T02:25:08.691Z,100064.38
2023-05-12T02:27:44.633Z,100071.56
2023-05-12T02:30:17.657Z,100070.91
2023-05-12T02:32:50.696Z,100069.94
2023-05-12T02:35:23.571Z,100070.53
2023-05-12T02:37:56.434Z,100066.97
2023-05-12T02:40:29.456Z,100072.75
2023-05-12T02:43:03.689Z,100075.16
2023-05-12T02:45:36.678Z,100070.16
2023-05-12T02:48:09.734Z,100065.34
2023-05-12T02:50:43.276Z,100075.78
2023-05-12T02:53:16.326Z,100079.25
2023-05-12T02:55:49.221Z,100075.28
2023-05-12T02:58:23.543Z,100084.13
2023-05-12T03:01:11.895Z,100087.53
2023-05-12T03:03:59.792Z,100082.56
2023-05-12T03:06:47.515Z,100085.84
2023-05-12T03:09:20.409Z,100094.44
2023-05-12T03:11:53.353Z,100088.00
2023-05-12T03:14:28.730Z,100092.94
2023-05-12T03:17:01.644Z,100095.53
2023-05-12T03:19:35.683Z,100096.88
2023-05-12T03:22:08.846Z,100097.91
2023-05-12T03:24:41.742Z,100091.22
2023-05-12T03:27:14.536Z,100096.63
2023-05-12T03:29:48.834Z,100095.91
2023-05-12T03:32:21.905Z,100094.84
2023-05-12T03:34:54.884Z,100097.50
2023-05-12T03:37:28.121Z,100099.44
2023-05-12T03:40:01.013Z,100106.41
2023-05-12T03:42:34.002Z,100106.81
2023-05-12T03:45:09.077Z,100107.66
2023-05-12T03:47:42.278Z,100113.16
2023-05-12T03:50:15.704Z,100109.63
2023-05-12T03:52:48.644Z,100117.38
2023-05-12T03:55:21.493Z,100120.75
2023-05-12T03:57:54.266Z,100133.28
2023-05-12T04:00:30.718Z,100126.16
2023-05-12T04:03:03.711Z,100122.84
2023-05-12T04:05:39.434Z,100125.81
2023-05-12T04:08:12.668Z,100129.47
2023-05-12T04:10:45.472Z,100129.81
2023-05-12T04:13:18.416Z,100125.19
2023-05-12T04:15:52.865Z,100128.22
2023-05-12T04:18:26.399Z,100134.53
2023-05-12T04:20:59.343Z,100130.69
2023-05-12T04:23:32.336Z,100128.41
2023-05-12T04:26:05.767Z,100130.00
2023-05-12T04:28:38.661Z,100124.78
2023-05-12T04:31:13.415Z,100133.72
2023-05-12T04:33:48.357Z,100129.75
2023-05-12T04:36:21.380Z,100129.63
2023-05-12T04:38:55.885Z,100125.53
2023-05-12T04:41:28.791Z,100131.34
2023-05-12T04:44:01.857Z,100129.75
2023-05-12T04:46:36.301Z,100123.19
2023-05-12T04:49:09.276Z,100132.25
2023-05-12T04:51:43.051Z,100133.72
2023-05-12T04:54:16.273Z,100126.19
2023-05-12T04:56:49.454Z,100129.91
2023-05-12T04:59:22.507Z,100135.13
2023-05-12T05:01:57.015Z,100131.13
2023-05-12T05:04:29.927Z,100136.81
2023-05-12T05:07:02.777Z,100126.41
2023-05-12T05:09:36.740Z,100129.94
2023-05-12T05:12:09.781Z,100127.47
2023-05-12T05:14:42.665Z,100124.94
2023-05-12T05:17:17.131Z,100135.84
2023-05-12T05:19:58.457Z,100130.50
2023-05-12T05:22:32.342Z,100138.56
2023-05-12T05:25:05.725Z,100135.91
2023-05-12T05:27:39.081Z,100132.63
2023-05-12T05:30:12.261Z,100131.13
2023-05-12T05:32:46.502Z,100135.81
2023-05-12T05:35:19.899Z,100133.41
2023-05-12T05:37:54.572Z,100137.50
2023-05-12T05:40:28.584Z,100140.16
2023-05-12T05:43:02.269Z,100141.31
2023-05-12T05:45:35.987Z,100132.97
2023-05-12T05:48:10.286Z,100131.50
2023-05-12T05:50:43.365Z,100138.72
2023-05-12T05:53:18.322Z,100135.47
2023-05-12T05:55:51.388Z,100140.66
2023-05-12T05:58:24.505Z,100141.34
2023-05-12T06:00:57.412Z,100144.06
2023-05-12T06:03:31.909Z,100137.59
2023-05-12T06:06:05.162Z,100138.31
2023-05-12T06:08:38.002Z,100134.75
2023-05-12T06:11:10.788Z,100135.84
2023-05-12T06:13:43.821Z,100142.06
2023-05-12T06:16:17.061Z,100138.78
2023-05-12T06:18:51.420Z,100132.38
2023-05-12T06:21:24.390Z,100133.38
2023-05-12T06:23:57.288Z,100135.16
2023-05-12T06:26:30.268Z,100135.53
2023-05-12T06:29:03.645Z,100133.00
2023-05-12T06:31:36.654Z,100138.75
2023-05-12T06:34:11.169Z,100138.81
2023-05-12T06:36:44.483Z,100139.47
2023-05-12T06:39:17.338Z,100137.84
2023-05-12T06:41:50.424Z,100143.78
2023-05-12T06:44:23.549Z,100135.88
2023-05-12T06:46:56.699Z,100134.91
2023-05-12T06:49:31.276Z,100061.25
2023-05-12T06:52:04.277Z,100129.78
2023-05-12T06:54:37.520Z,100122.91
2023-05-12T06:57:10.890Z,100127.50
2023-05-12T06:59:43.939Z,100127.91
2023-05-12T07:02:17.028Z,100130.47
2023-05-12T07:04:51.243Z,100131.75
2023-05-12T07:07:24.153Z,100123.88
2023-05-12T07:09:57.247Z,100130.03
2023-05-12T07:12:32.239Z,100131.22
2023-05-12T07:15:05.369Z,100133.13
2023-05-12T07:17:38.756Z,100127.03
2023-05-12T07:20:13.834Z,100127.72
2023-05-12T07:22:46.700Z,100136.50
2023-05-12T07:25:20.017Z,100133.75
2023-05-12T07:27:53.354Z,100135.31
2023-05-12T07:30:26.521Z,100135.22
2023-05-12T07:33:01.284Z,100130.41
2023-05-12T07:35:35.506Z,100137.88
2023-05-12T07:38:09.564Z,100140.84
2023-05-12T07:40:43.203Z,100143.75
2023-05-12T07:43:17.494Z,100149.06
2023-05-12T07:45:50.403Z,100145.06
2023-05-12T07:48:23.781Z,100149.13
2023-05-12T07:50:58.379Z,100146.38
2023-05-12T07:53:31.310Z,100142.53
2023-05-12T07:56:04.519Z,100137.97
2023-05-12T07:58:37.400Z,100140.72
2023-05-12T08:01:10.342Z,100129.78
2023-05-12T08:03:43.358Z,100134.56
2023-05-12T08:06:17.613Z,100128.94
2023-05-12T08:08:50.609Z,100140.91
2023-05-12T08:11:23.539Z,100144.88
2023-05-12T08:13:56.347Z,100139.63
2023-05-12T08:16:29.425Z,100136.22
2023-05-12T08:19:02.570Z,100137.41
2023-05-12T08:21:36.920Z,100137.19
2023-05-12T08:24:09.935Z,100144.59
2023-05-12T08:26:42.990Z,100147.28
2023-05-12T08:29:16.800Z,100143.59
2023-05-12T08:31:49.699Z,100147.56
2023-05-12T08:34:22.571Z,100151.94
2023-05-12T08:36:56.915Z,100143.59
2023-05-12T08:39:31.032Z,100147.41
2023-05-12T08:42:10.811Z,100134.00
2023-05-12T08:44:44.140Z,100142.28
2023-05-12T08:47:19.837Z,100137.63
2023-05-12T08:50:03.401Z,100140.34
2023-05-12T08:52:37.732Z,100146.41
2023-05-12T08:55:11.956Z,100142.44
2023-05-12T08:57:48.283Z,100145.31
2023-05-12T09:00:22.050Z,100143.91
2023-05-12T09:02:55.936Z,100145.47
2023-05-12T09:05:30.889Z,100141.22
2023-05-12T09:08:05.797Z,100140.22
2023-05-12T09:10:39.037Z,100137.25
2023-05-12T09:13:20.764Z,100132.31
2023-05-12T09:15:56.664Z,100138.13
2023-05-12T09:18:34.627Z,100137.69
2023-05-12T09:21:08.072Z,100131.44
2023-05-12T09:23:42.332Z,100130.59
2023-05-12T09:26:15.301Z,100125.97
2023-05-12T09:28:50.357Z,100136.53
2023-05-12T09:31:24.452Z,100133.44
2023-05-12T09:33:57.675Z,100134.00
2023-05-12T09:36:30.549Z,100138.66
2023-05-12T09:39:07.019Z,100140.63
2023-05-12T09:41:40.515Z,100137.81
2023-05-12T09:44:16.428Z,100136.38
2023-05-12T09:46:50.058Z,100136.06
2023-05-12T09:49:24.993Z,100136.78
2023-05-12T09:51:58.583Z,100135.81
2023-05-12T09:54:34.506Z,100145.22
2023-05-12T09:57:09.186Z,100136.59
2023-05-12T09:59:43.898Z,100134.78
2023-05-12T10:02:18.258Z,100139.38
2023-05-12T10:04:53.920Z,100137.84
2023-05-12T10:07:28.904Z,100128.22
2023-05-12T10:10:05.581Z,100127.63
2023-05-12T10:12:39.428Z,100131.31
2023-05-12T10:15:13.039Z,100121.06
2023-05-12T10:17:47.010Z,100132.16
2023-05-12T10:20:20.373Z,100134.53
2023-05-12T10:22:53.699Z,100134.34
2023-05-12T10:25:29.465Z,100127.34
2023-05-12T10:28:03.995Z,100134.81
2023-05-12T10:30:37.197Z,100132.16
2023-05-12T10:33:11.806Z,100124.94
2023-05-12T10:35:45.772Z,100124.13
2023-05-12T10:38:20.844Z,100109.16
2023-05-12T10:40:58.079Z,100100.38
2023-05-12T10:43:38.617Z,100098.31
2023-05-12T10:46:16.388Z,100094.06
2023-05-12T10:48:55.972Z,100096.75
2023-05-12T10:51:30.081Z,100106.88
2023-05-12T10:54:04.922Z,100096.72
2023-05-12T10:56:44.915Z,100093.66
2023-05-12T10:59:19.386Z,100089.47
2023-05-12T11:02:01.822Z,100085.97
2023-05-12T11:04:37.704Z,100091.34
2023-05-12T11:07:12.761Z,100086.59
2023-05-12T11:09:56.514Z,100081.00
2023-05-12T11:12:33.414Z,100084.47
2023-05-12T11:15:07.307Z,100079.66
2023-05-12T11:17:41.240Z,100079.31
2023-05-12T11:20:23.124Z,100075.78
2023-05-12T11:22:56.136Z,100079.47
2023-05-12T11:25:29.316Z,100074.16
2023-05-12T11:28:03.589Z,100067.16
2023-05-12T11:30:37.117Z,100073.78
2023-05-12T11:33:10.311Z,100070.91
2023-05-12T11:35:43.506Z,100062.38
2023-05-12T11:38:17.412Z,100059.63
2023-05-12T11:40:50.464Z,100055.88
2023-05-12T11:43:24.910Z,100060.47
2023-05-12T11:45:57.878Z,100066.75
2023-05-12T11:48:34.908Z,100066.66
2023-05-12T11:51:09.001Z,100062.16
2023-05-12T11:53:41.728Z,100059.03
2023-05-12T11:56:19.306Z,100062.47
2023-05-12T11:58:57.683Z,100058.63
2023-05-12T12:01:30.541Z,100049.63
2023-05-12T12:04:03.401Z,100058.28
2023-05-12T12:06:44.455Z,100048.06
2023-05-12T12:09:17.394Z,100038.91
2023-05-12T12:11:50.263Z,100034.41
2023-05-12T12:14:25.097Z,100039.22
2023-05-12T12:16:58.450Z,100054.88
2023-05-12T12:19:31.854Z,100052.53
2023-05-12T12:22:05.161Z,100051.00
2023-05-12T12:24:38.009Z,100052.66
2023-05-12T12:27:10.909Z,100044.91
2023-05-12T12:29:45.419Z,100042.22
2023-05-12T12:32:18.519Z,100042.47
2023-05-12T12:34:51.975Z,100027.72
2023-05-12T12:37:24.894Z,100037.50
2023-05-12T12:39:57.817Z,100034.22
2023-05-12T12:42:31.100Z,100034.56
2023-05-12T12:45:05.714Z,100028.75
2023-05-12T12:47:38.991Z,100036.22
2023-05-12T12:50:12.298Z,100030.06
2023-05-12T12:52:45.409Z,100027.22
2023-05-12T12:55:18.662Z,100022.66
2023-05-12T12:57:51.582Z,100023.78
2023-05-12T13:00:27.021Z,100024.00
2023-05-12T13:03:00.291Z,100030.56
2023-05-12T13:05:33.795Z,100026.19
2023-05-12T13:08:06.702Z,100027.56
2023-05-12T13:10:41.984Z,100022.09
2023-05-12T13:13:14.989Z,100012.69
2023-05-12T13:15:49.245Z,100016.28
2023-05-12T13:18:22.220Z,100015.94
2023-05-12T13:20:55.374Z,100023.97
2023-05-12T13:23:28.191Z,100016.28
2023-05-12T13:26:01.001Z,100017.59
2023-05-12T13:28:33.762Z,100024.88
2023-05-12T13:31:08.327Z,100022.75
2023-05-12T13:33:41.220Z,100014.56
2023-05-12T13:36:14.204Z,100016.94
2023-05-12T13:38:47.047Z,100021.22
2023-05-12T13:41:20.005Z,100020.34
2023-05-12T13:43:52.879Z,100015.28
2023-05-12T13:46:27.109Z,100018.75
2023-05-12T13:49:00.009Z,100025.66
2023-05-12T13:51:33.174Z,100016.63
2023-05-12T13:54:05.982Z,100017.13
2023-05-12T13:56:39.492Z,100019.66
2023-05-12T13:59:12.283Z,100021.16
2023-05-12T14:01:47.035Z,100015.28
2023-05-12T14:04:19.927Z,100025.25
2023-05-12T14:06:53.049Z,100021.97
2023-05-12T14:09:26.247Z,100018.69
2023-05-12T14:12:00.035Z,100024.91
2023-05-12T14:14:33.085Z,100026.59
2023-05-12T14:17:07.592Z,100030.84
2023-05-12T14:19:41.114Z,100032.66
2023-05-12T14:22:25.355Z,100031.06
2023-05-12T14:24:59.204Z,100029.56
2023-05-12T14:27:32.214Z,100033.88
2023-05-12T14:30:05.897Z,100035.13
2023-05-12T14:32:40.776Z,100035.38
2023-05-12T14:35:14.172Z,100031.09
2023-05-12T14:37:48.121Z,100039.25
2023-05-12T14:40:21.213Z,100035.19
2023-05-12T14:42:54.625Z,100031.38
2023-05-12T14:45:28.841Z,100026.22
2023-05-12T14:48:03.405Z,100017.03
2023-05-12T14:50:36.217Z,100030.13
2023-05-12T14:53:09.101Z,100024.75
2023-05-12T14:55:41.821Z,100027.75
2023-05-12T14:58:14.770Z,100031.63
2023-05-12T15:00:48.604Z,100030.97
2023-05-12T15:03:23.677Z,100025.00
2023-05-12T15:06:06.555Z,100038.56
2023-05-12T15:08:50.397Z,100047.63
2023-05-12T15:11:23.651Z,100036.81
2023-05-12T15:13:56.549Z,100044.47
2023-05-12T15:16:30.056Z,100042.47
2023-05-12T15:19:04.624Z,100046.38
2023-05-12T15:21:37.516Z,100044.47
2023-05-12T15:24:10.604Z,100043.13
2023-05-12T15:26:43.505Z,100043.25
2023-05-12T15:29:17.663Z,100042.34
2023-05-12T15:31:50.714Z,100045.91
2023-05-12T15:34:25.134Z,100040.91
2023-05-12T15:36:58.683Z,100049.53
2023-05-12T15:39:31.638Z,100047.13
2023-05-12T15:42:05.518Z,100054.69
2023-05-12T15:44:40.103Z,100052.81
2023-05-12T15:47:13.023Z,100054.28
2023-05-12T15:49:49.115Z,100059.78
2023-05-12T15:52:21.913Z,100055.00
2023-05-12T15:54:55.005Z,100052.63
2023-05-12T15:57:27.890Z,100052.63
2023-05-12T16:00:01.050Z,100061.94
2023-05-12T16:02:34.208Z,100051.59
2023-05-12T16:05:09.481Z,100041.16
2023-05-12T16:07:42.844Z,100049.84
2023-05-12T16:10:15.956Z,100038.09
2023-05-12T16:12:49.176Z,100040.28
2023-05-12T16:15:22.315Z,100041.41
2023-05-12T16:17:55.404Z,100046.09
2023-05-12T16:20:30.104Z,100042.03
2023-05-12T16:23:03.737Z,100040.19
2023-05-12T16:25:37.065Z,100045.34
2023-05-12T16:28:10.256Z,100037.50
2023-05-12T16:30:43.062Z,100041.94
2023-05-12T16:33:15.916Z,100043.81
2023-05-12T16:35:50.525Z,100050.03
2023-05-12T16:38:23.349Z,100045.91
2023-05-12T16:40:56.212Z,100044.56
2023-05-12T16:43:28.990Z,100052.97
2023-05-12T16:46:03.232Z,100050.56
2023-05-12T16:48:36.402Z,100052.63
2023-05-12T16:51:11.453Z,100056.88
2023-05-12T16:53:44.307Z,100053.50
2023-05-12T16:56:17.314Z,100055.16
2023-05-12T16:58:50.044Z,100061.47
2023-05-12T17:01:22.899Z,100062.09
2023-05-12T17:04:12.427Z,100062.28
2023-05-12T17:07:01.479Z,100066.78
2023-05-12T17:09:49.224Z,100072.91
2023-05-12T17:12:37.757Z,100075.72
2023-05-12T17:15:25.675Z,100076.50
2023-05-12T17:18:13.970Z,100080.19
2023-05-12T17:21:01.780Z,100077.00
2023-05-12T17:23:51.064Z,100081.31
2023-05-12T17:26:38.739Z,100090.88
2023-05-12T17:29:26.877Z,100095.41
2023-05-12T17:32:14.594Z,100101.16
2023-05-12T17:35:02.394Z,100105.13
2023-05-12T17:37:52.159Z,100103.03
2023-05-12T17:40:41.534Z,100113.53
2023-05-12T17:43:29.849Z,100112.97
2023-05-12T17:46:17.630Z,100121.28
2023-05-12T17:49:05.365Z,100123.69
2023-05-12T17:51:54.841Z,100130.75
2023-05-12T17:54:42.622Z,100135.00
2023-05-12T17:57:31.799Z,100132.19
2023-05-12T18:00:19.679Z,100130.47
2023-05-12T18:03:07.554Z,100144.28
2023-05-12T18:05:55.452Z,100143.69
2023-05-12T18:08:43.426Z,100146.97
2023-05-12T18:11:31.227Z,100153.63
2023-05-12T18:14:20.417Z,100158.97
2023-05-12T18:17:08.137Z,100164.00
2023-05-12T18:19:55.868Z,100146.38
2023-05-12T18:22:43.533Z,100161.63
2023-05-12T18:25:31.230Z,100155.78
2023-05-12T18:28:18.919Z,100164.28
2023-05-12T18:31:16.029Z,100164.63
2023-05-12T18:34:04.351Z,100169.53
2023-05-12T18:36:52.051Z,100172.00
2023-05-12T18:39:39.727Z,100182.22
2023-05-12T18:42:27.514Z,100176.94
2023-05-12T18:45:15.795Z,100184.94
2023-05-12T18:48:05.093Z,100194.63
2023-05-12T18:50:52.940Z,100198.50
2023-05-12T18:53:40.899Z,100194.66
2023-05-12T18:56:28.623Z,100200.63
2023-05-12T18:59:16.400Z,100187.97
2023-05-12T19:02:04.672Z,100197.44
2023-05-12T19:04:54.999Z,100202.66
2023-05-12T19:07:42.741Z,100198.56
2023-05-12T19:10:30.776Z,100205.53
2023-05-12T19:13:18.508Z,100205.22
2023-05-12T19:16:06.533Z,100206.50
2023-05-12T19:18:54.363Z,100209.81
2023-05-12T19:21:43.637Z,100211.06
2023-05-12T19:24:31.460Z,100222.09
2023-05-12T19:27:19.239Z,100218.50
2023-05-12T19:30:07.483Z,100227.78
2023-05-12T19:32:55.221Z,100227.94
2023-05-12T19:35:43.053Z,100232.94
2023-05-12T19:38:32.111Z,100232.72
2023-05-12T19:41:19.809Z,100229.75
2023-05-12T19:44:07.559Z,100229.13
2023-05-12T19:46:56.629Z,100229.69
2023-05-12T19:49:44.363Z,100224.41
2023-05-12T19:52:32.083Z,100222.13
2023-05-12T19:55:21.589Z,100217.47
2023-05-12T19:58:09.615Z,100215.03
2023-05-12T20:00:57.344Z,100210.56
2023-05-12T20:03:45.096Z,100205.03
2023-05-12T20:06:32.926Z,100200.34
2023-05-12T20:09:22.062Z,100196.91
2023-05-12T20:12:11.375Z,100200.44
2023-05-12T20:14:59.104Z,100184.41
2023-05-12T20:17:46.789Z,100184.84
2023-05-12T20:20:34.569Z,100187.16
2023-05-12T20:23:22.234Z,100178.09
2023-05-12T20:26:10.050Z,100174.94
2023-05-12T20:28:59.597Z,100180.03
2023-05-12T20:31:47.698Z,100175.19
2023-05-12T20:34:35.443Z,100180.53
2023-05-12T20:37:23.151Z,100183.91
2023-05-12T20:40:11.199Z,100189.75
2023-05-12T20:42:58.857Z,100198.63
2023-05-12T20:45:48.012Z,100191.69
2023-05-12T20:48:35.735Z,100184.41
2023-05-12T20:51:23.503Z,100188.53
2023-05-12T20:54:11.211Z,100202.13
2023-05-12T20:56:58.942Z,100203.41
2023-05-12T20:59:46.979Z,100201.63
2023-05-12T21:02:36.139Z,100202.97
2023-05-12T21:05:24.050Z,100216.78
2023-05-12T21:08:11.819Z,100213.44
2023-05-12T21:11:00.103Z,100210.69
2023-05-12T21:13:48.302Z,100211.91
2023-05-12T21:16:36.164Z,100209.22
2023-05-12T21:19:25.301Z,100210.31
2023-05-12T21:22:13.089Z,100217.41
2023-05-12T21:25:00.777Z,100218.56
2023-05-12T21:27:48.592Z,100214.16
2023-05-12T21:30:37.366Z,100209.56
2023-05-12T21:33:25.121Z,100213.66
2023-05-12T21:36:14.188Z,100218.22
2023-05-12T21:39:01.912Z,100224.22
2023-05-12T21:41:49.652Z,100230.00
2023-05-12T21:44:37.352Z,100224.75
2023-05-12T21:47:25.191Z,100228.72
2023-05-12T21:50:12.985Z,100220.81
2023-05-12T21:53:02.105Z,100226.50
2023-05-12T21:55:49.849Z,100228.91
2023-05-12T21:58:37.536Z,100228.13
2023-05-12T22:01:25.250Z,100231.63
2023-05-12T22:04:13.105Z,100230.44
2023-05-12T22:07:01.270Z,100235.31
2023-05-12T22:09:50.351Z,100233.78
2023-05-12T22:12:38.404Z,100224.69
2023-05-12T22:15:26.111Z,100224.34
2023-05-12T22:18:14.013Z,100217.34
2023-05-12T22:21:01.831Z,100222.78
2023-05-12T22:23:49.683Z,100220.63
2023-05-12T22:26:38.786Z,100215.75
2023-05-12T22:29:26.448Z,100221.63
2023-05-12T22:32:14.202Z,100224.19
2023-05-12T22:35:01.893Z,100228.22
2023-05-12T22:37:50.185Z,100226.75
2023-05-12T22:40:38.014Z,100216.66
2023-05-12T22:43:27.148Z,100224.50
2023-05-12T22:46:14.865Z,100225.34
2023-05-12T22:49:02.630Z,100225.69
2023-05-12T22:51:50.357Z,100223.25
2023-05-12T22:54:38.134Z,100214.94
2023-05-12T22:57:25.960Z,100224.59
2023-05-12T23:00:15.699Z,100219.81
2023-05-12T23:03:03.653Z,100210.66
2023-05-12T23:05:51.416Z,100211.72
2023-05-12T23:08:39.113Z,100208.72
2023-05-12T23:11:26.963Z,100206.41
2023-05-12T23:14:14.662Z,100202.09
2023-05-12T23:17:03.908Z,100197.03
2023-05-12T23:19:52.262Z,100203.56
2023-05-12T23:22:40.001Z,100202.31
2023-05-12T23:25:27.734Z,100201.25
2023-05-12T23:28:15.421Z,100198.09
2023-05-12T23:31:03.544Z,100205.91
2023-05-12T23:33:52.770Z,100191.44
2023-05-12T23:36:40.495Z,100195.13
2023-05-12T23:39:28.202Z,100196.56
2023-05-12T23:42:17.186Z,100202.97
2023-05-12T23:45:05.157Z,100198.06
2023-05-12T23:47:52.949Z,100204.56
2023-05-12T23:50:42.112Z,100202.53
2023-05-12T23:53:29.838Z,100200.59
2023-05-12T23:56:17.509Z,100200.19
2023-05-12T23:59:05.286Z,100194.78
